createdAt,value
2022-11-25T00:03:57.874Z,1.00
2022-11-25T00:09:29.627Z,1.00
2022-11-25T00:15:01.330Z,1.00
2022-11-25T00:20:32.949Z,1.00
2022-11-25T00:26:04.442Z,0.00
2022-11-25T00:31:36.341Z,1.00
2022-11-25T00:37:08.074Z,1.00
2022-11-25T00:42:45.974Z,0.00
2022-11-25T00:48:17.585Z,1.00
2022-11-25T00:53:50.282Z,1.00
2022-11-25T00:59:21.215Z,1.00
2022-11-25T01:10:24.859Z,1.00
2022-11-25T01:15:56.827Z,1.00
2022-11-25T01:21:28.546Z,0.00
2022-11-25T01:27:06.242Z,0.00
2022-11-25T01:32:37.999Z,1.00
2022-11-25T01:38:09.839Z,0.00
2022-11-25T01:43:47.724Z,1.00
2022-11-25T01:49:19.407Z,1.00
2022-11-25T01:54:50.745Z,1.00
2022-11-25T02:00:22.026Z,0.00
2022-11-25T02:05:53.483Z,1.00
2022-11-25T02:11:25.247Z,1.00
2022-11-25T02:16:56.684Z,1.00
2022-11-25T02:22:28.520Z,1.00
2022-11-25T02:28:00.195Z,1.00
2022-11-25T02:33:32.335Z,1.00
2022-11-25T02:39:03.878Z,1.00
2022-11-25T02:44:36.108Z,1.00
2022-11-25T02:50:07.636Z,1.00
2022-11-25T02:55:39.483Z,0.00
2022-11-25T03:01:11.268Z,0.00
2022-11-25T03:06:42.782Z,1.00
2022-11-25T03:12:14.623Z,1.00
2022-11-25T03:17:46.672Z,0.00
2022-11-25T03:23:18.515Z,0.00
2022-11-25T03:28:50.262Z,0.00
2022-11-25T03:34:22.037Z,1.00
2022-11-25T03:39:53.589Z,1.00
2022-11-25T03:45:25.659Z,1.00
2022-11-25T03:50:57.465Z,0.00
2022-11-25T03:56:35.301Z,1.00
2022-11-25T04:02:06.829Z,1.00
2022-11-25T04:07:38.969Z,1.00
2022-11-25T04:13:17.028Z,1.00
2022-11-25T04:18:49.069Z,1.00
2022-11-25T04:24:20.659Z,1.00
2022-11-25T04:29:58.740Z,1.00
2022-11-25T04:35:30.389Z,1.00
2022-11-25T04:41:02.333Z,1.00
2022-11-25T04:46:34.078Z,1.00
2022-11-25T04:52:05.800Z,1.00
2022-11-25T04:57:37.523Z,1.00
2022-11-25T05:08:41.208Z,1.00
2022-11-25T05:14:13.115Z,0.00
2022-11-25T05:19:44.999Z,1.00
2022-11-25T05:25:22.504Z,1.00
2022-11-25T05:30:54.645Z,1.00
2022-11-25T05:36:26.221Z,1.00
2022-11-25T05:41:58.064Z,1.00
2022-11-25T05:47:29.895Z,2.00
2022-11-25T05:53:01.808Z,3.00
2022-11-25T05:58:33.927Z,7.00
2022-11-25T06:04:05.661Z,22.00
2022-11-25T06:09:37.689Z,61.00
2022-11-25T06:15:09.596Z,137.00
2022-11-25T06:20:41.486Z,262.00
2022-11-25T06:26:13.377Z,586.00
2022-11-25T06:31:45.417Z,1404.00
2022-11-25T06:37:17.283Z,952.00
2022-11-25T06:42:49.185Z,1698.00
2022-11-25T06:48:20.596Z,3611.00
2022-11-25T06:53:52.337Z,34003.00
2022-11-25T06:59:24.429Z,37889.00
2022-11-25T07:04:55.895Z,37889.00
2022-11-25T07:10:27.694Z,13639.00
2022-11-25T07:15:59.514Z,11368.00
2022-11-25T07:21:36.924Z,10442.00
2022-11-25T07:27:08.465Z,8584.00
2022-11-25T07:34:53.742Z,8745.00
2022-11-25T07:40:24.612Z,9119.00
2022-11-25T07:45:56.174Z,9695.00
2022-11-25T07:51:28.056Z,10927.00
2022-11-25T07:56:59.743Z,12690.00
2022-11-25T08:08:03.208Z,14624.00
2022-11-25T08:13:34.856Z,14615.00
2022-11-25T08:19:06.935Z,13619.00
2022-11-25T08:24:38.621Z,12992.00
2022-11-25T08:30:10.320Z,13173.00
2022-11-25T08:35:41.885Z,13835.00
2022-11-25T08:41:13.573Z,14339.00
2022-11-25T08:46:45.656Z,17163.00
2022-11-25T08:52:17.239Z,20692.00
2022-11-25T08:57:48.794Z,24352.00
2022-11-25T09:03:20.750Z,28333.00
2022-11-25T09:08:58.224Z,29048.00
2022-11-25T09:14:36.109Z,33777.00
2022-11-25T09:20:07.746Z,30507.00
2022-11-25T09:25:39.678Z,32633.00
2022-11-25T09:31:11.433Z,32327.00
2022-11-25T09:36:49.036Z,31536.00
2022-11-25T09:47:55.724Z,18774.00
2022-11-25T09:53:22.098Z,17398.00
2022-11-25T09:58:53.843Z,16096.00
2022-11-25T10:04:25.733Z,15590.00
2022-11-25T10:09:57.379Z,15158.00
2022-11-25T10:12:20.856Z,14969.00
2022-11-25T10:17:52.457Z,14538.00
2022-11-25T10:23:27.992Z,14225.00
2022-11-25T10:28:55.993Z,13955.00
2022-11-25T10:34:27.741Z,13770.00
2022-11-25T10:39:59.733Z,13545.00
2022-11-25T10:45:31.326Z,13325.00
2022-11-25T10:51:03.429Z,13710.00
2022-11-25T10:56:34.996Z,14904.00
2022-11-25T11:02:06.933Z,12501.00
2022-11-25T11:07:38.679Z,15693.00
2022-11-25T11:13:10.327Z,17729.00
2022-11-25T11:18:42.194Z,21828.00
2022-11-25T11:24:19.764Z,14699.00
2022-11-25T11:29:51.620Z,14865.00
2022-11-25T11:35:23.494Z,13646.00
2022-11-25T11:40:55.074Z,21306.00
2022-11-25T11:46:27.027Z,22039.00
2022-11-25T11:51:58.713Z,21206.00
2022-11-25T11:57:30.522Z,15724.00
2022-11-25T12:03:02.411Z,12760.00
2022-11-25T12:08:34.149Z,12093.00
2022-11-25T12:14:05.871Z,11824.00
2022-11-25T12:19:37.640Z,11398.00
2022-11-25T12:25:15.483Z,11738.00
2022-11-25T12:30:49.016Z,13111.00
2022-11-25T12:36:20.480Z,19134.00
2022-11-25T12:47:21.891Z,21730.00
2022-11-25T12:52:53.525Z,23808.00
2022-11-25T12:58:31.336Z,20060.00
2022-11-25T13:04:02.458Z,19423.00
2022-11-25T13:09:34.047Z,18401.00
2022-11-25T13:15:06.172Z,18186.00
2022-11-25T13:20:37.729Z,11475.00
2022-11-25T13:26:09.226Z,7998.00
2022-11-25T13:31:40.756Z,7410.00
2022-11-25T13:42:47.805Z,8374.00
2022-11-25T13:48:19.618Z,9348.00
2022-11-25T13:53:57.546Z,9079.00
2022-11-25T13:59:29.125Z,6347.00
2022-11-25T14:05:00.951Z,5716.00
2022-11-25T14:10:32.721Z,4939.00
2022-11-25T14:16:07.125Z,4229.00
2022-11-25T14:21:35.579Z,3621.00
2022-11-25T14:27:07.055Z,3647.00
2022-11-25T14:32:38.207Z,2497.00
2022-11-25T14:38:09.801Z,1705.00
2022-11-25T14:43:41.394Z,1413.00
2022-11-25T14:49:30.575Z,1211.00
2022-11-25T14:54:44.318Z,1063.00
2022-11-25T15:00:19.160Z,887.00
2022-11-25T15:05:50.970Z,666.00
2022-11-25T15:11:22.727Z,535.00
2022-11-25T15:16:54.259Z,370.00
2022-11-25T15:22:25.764Z,284.00
2022-11-25T15:27:57.602Z,173.00
2022-11-25T15:33:29.482Z,107.00
2022-11-25T15:39:01.352Z,54.00
2022-11-25T15:44:34.339Z,30.00
2022-11-25T15:50:06.410Z,13.00
2022-11-25T15:55:38.211Z,7.00
2022-11-25T16:01:10.197Z,4.00
2022-11-25T16:06:41.657Z,3.00
2022-11-25T16:12:13.484Z,3.00
2022-11-25T16:17:45.352Z,2.00
2022-11-25T16:23:16.922Z,2.00
2022-11-25T16:28:48.891Z,3.00
2022-11-25T16:34:20.754Z,3.00
2022-11-25T16:39:52.533Z,3.00
2022-11-25T16:45:24.631Z,2.00
2022-11-25T16:50:56.081Z,3.00
2022-11-25T16:56:27.956Z,2.00
2022-11-25T17:02:00.504Z,3.00
2022-11-25T17:07:33.682Z,3.00
2022-11-25T17:13:04.359Z,3.00
2022-11-25T17:18:36.032Z,3.00
2022-11-25T17:24:07.886Z,3.00
2022-11-25T17:29:40.383Z,13.00
2022-11-25T17:35:11.859Z,14.00
2022-11-25T17:40:49.759Z,15.00
2022-11-25T17:48:42.565Z,14.00
2022-11-25T18:05:27.867Z,14.00
2022-11-25T18:11:00.186Z,13.00
2022-11-25T18:16:31.972Z,14.00
2022-11-25T18:27:33.391Z,14.00
2022-11-25T18:38:49.252Z,14.00
2022-11-25T18:44:25.681Z,14.00
2022-11-25T18:49:56.204Z,14.00
2022-11-25T18:55:24.120Z,14.00
2022-11-25T19:03:17.260Z,14.00
2022-11-25T19:08:49.159Z,14.00
2022-11-25T19:14:20.852Z,14.00
2022-11-25T19:19:52.518Z,14.00
2022-11-25T19:25:24.469Z,14.00
2022-11-25T19:31:02.304Z,14.00
2022-11-25T19:36:33.927Z,14.00
2022-11-25T19:42:11.789Z,14.00
2022-11-25T19:47:43.429Z,14.00
2022-11-25T19:53:15.391Z,7.00
2022-11-25T19:58:47.247Z,14.00
2022-11-25T20:04:24.662Z,15.00
2022-11-25T20:09:56.766Z,15.00
2022-11-25T20:15:27.990Z,15.00
2022-11-25T20:20:59.477Z,15.00
2022-11-25T20:26:31.549Z,14.00
2022-11-25T20:32:03.253Z,14.00
2022-11-25T20:37:35.091Z,15.00
2022-11-25T20:43:06.646Z,15.00
2022-11-25T20:48:38.461Z,15.00
2022-11-25T20:56:30.386Z,14.00
2022-11-25T21:02:01.729Z,14.00
2022-11-25T21:07:33.265Z,14.00
2022-11-25T21:13:10.701Z,14.00
2022-11-25T21:18:42.602Z,15.00
2022-11-25T21:29:52.054Z,14.00
2022-11-25T21:35:24.029Z,14.00
2022-11-25T21:40:55.548Z,14.00
2022-11-25T21:46:27.142Z,14.00
2022-11-25T21:51:58.669Z,14.00
2022-11-25T21:57:30.670Z,17.00
2022-11-25T22:03:02.745Z,15.00
2022-11-25T22:08:34.414Z,3.00
2022-11-25T22:19:38.141Z,2.00
2022-11-25T22:25:10.127Z,2.00
2022-11-25T22:30:42.062Z,3.00
2022-11-25T22:36:13.615Z,2.00
2022-11-25T22:41:45.689Z,2.00
2022-11-25T22:47:17.284Z,2.00
2022-11-25T22:52:49.528Z,2.00
2022-11-25T22:58:21.924Z,1.00
2022-11-25T23:03:54.054Z,0.00
2022-11-25T23:09:28.126Z,1.00
2022-11-25T23:14:59.982Z,1.00
2022-11-25T23:20:31.885Z,0.00
2022-11-25T23:26:03.984Z,1.00
2022-11-25T23:31:36.195Z,0.00
2022-11-25T23:37:08.130Z,1.00
2022-11-25T23:42:39.902Z,1.00
2022-11-25T23:48:11.799Z,0.00
2022-11-25T23:53:43.741Z,1.00
2022-11-25T23:59:16.081Z,1.00
